Time,TemperatureF,DewpointF,PressureIn,WindDirection,WindDirectionDegrees,WindSpeedMPH,WindSpeedGustMPH,Humidity,HourlyPrecipIn,Conditions,Clouds,dailyrainin,SoftwareType,DateUTC
2013-03-24 00:00:00,44.7,43.0,30.07,NNE,15,0.0,0.0,92,0.00,,,0.00,weatherlink.com 1.10,2013-03-24 07:00:00,
2013-03-24 00:15:00,44.3,42.0,30.07,NNE,15,0.0,0.0,92,0.00,,,0.00,weatherlink.com 1.10,2013-03-24 07:15:00,
2013-03-24 00:30:00,44.1,42.0,30.07,NNE,15,0.0,0.0,92,0.00,,,0.00,weatherlink.com 1.10,2013-03-24 07:30:00,
2013-03-24 00:45:00,43.8,42.0,30.07,NNE,16,0.0,0.0,93,0.00,,,0.00,weatherlink.com 1.10,2013-03-24 07:45:00,
2013-03-24 01:00:00,43.6,42.0,30.07,NNE,16,0.0,0.0,93,0.00,,,0.00,weatherlink.com 1.10,2013-03-24 08:00:00,
2013-03-24 01:15:00,43.3,42.0,30.07,NNE,16,0.0,0.0,93,0.00,,,0.00,weatherlink.com 1.10,2013-03-24 08:15:00,
2013-03-24 01:30:00,43.1,42.0,30.07,NNE,15,0.0,0.0,94,0.00,,,0.00,weatherlink.com 1.10,2013-03-24 08:30:00,
2013-03-24 01:45:00,43.0,41.0,30.07,NNE,16,0.0,0.0,94,0.00,,,0.00,weatherlink.com 1.10,2013-03-24 08:45:00,
2013-03-24 02:00:00,42.8,41.0,30.07,NNE,16,0.0,0.0,94,0.00,,,0.00,weatherlink.com 1.10,2013-03-24 09:00:00,
2013-03-24 02:15:00,42.5,41.0,30.08,NNE,16,0.0,0.0,94,0.00,,,0.00,weatherlink.com 1.10,2013-03-24 09:15:00,
2013-03-24 02:30:00,42.3,41.0,30.07,NNE,16,0.0,0.0,94,0.00,,,0.00,weatherlink.com 1.10,2013-03-24 09:30:00,
2013-03-24 02:45:00,42.0,41.0,30.07,NNE,15,0.0,0.0,95,0.00,,,0.00,weatherlink.com 1.10,2013-03-24 09:45:00,
2013-03-24 03:00:00,41.7,40.0,30.07,NNE,16,0.0,0.0,95,0.00,,,0.00,weatherlink.com 1.10,2013-03-24 10:00:00,
2013-03-24 03:15:00,41.5,40.0,30.07,NNE,16,0.0,0.0,95,0.00,,,0.00,weatherlink.com 1.10,2013-03-24 10:15:00,
2013-03-24 03:30:00,41.3,40.0,30.07,NNE,16,0.0,0.0,95,0.00,,,0.00,weatherlink.com 1.10,2013-03-24 10:30:00,
2013-03-24 03:45:00,41.1,40.0,30.08,NNE,16,0.0,0.0,95,0.00,,,0.00,weatherlink.com 1.10,2013-03-24 10:45:00,
2013-03-24 04:01:00,41.0,40.0,30.07,NNE,15,0.0,0.0,95,0.00,,,0.00,weatherlink.com 1.10,2013-03-24 11:01:00,
2013-03-24 04:16:00,40.7,39.0,30.07,NNE,16,0.0,0.0,95,0.00,,,0.00,weatherlink.com 1.10,2013-03-24 11:16:00,
2013-03-24 04:31:00,40.6,39.0,30.07,NNE,16,0.0,0.0,95,0.00,,,0.00,weatherlink.com 1.10,2013-03-24 11:31:00,
2013-03-24 04:46:00,40.4,39.0,30.06,NNE,16,0.0,0.0,95,0.00,,,0.00,weatherlink.com 1.10,2013-03-24 11:46:00,
2013-03-24 05:01:00,40.2,39.0,30.06,NNE,16,0.0,0.0,95,0.00,,,0.00,weatherlink.com 1.10,2013-03-24 12:01:00,
2013-03-24 06:01:00,39.3,38.0,30.07,NNE,16,0.0,0.0,95,0.00,,,0.00,weatherlink.com 1.10,2013-03-24 13:01:00,
2013-03-24 06:16:00,39.2,38.0,30.07,NNE,16,0.0,0.0,96,0.00,,,0.00,weatherlink.com 1.10,2013-03-24 13:16:00,
2013-03-24 06:31:00,38.9,38.0,30.08,NNE,16,0.0,0.0,95,0.00,,,0.00,weatherlink.com 1.10,2013-03-24 13:31:00,
2013-03-24 06:46:00,38.7,38.0,30.08,NNE,16,0.0,0.0,96,0.00,,,0.00,weatherlink.com 1.10,2013-03-24 13:46:00,
2013-03-24 07:01:00,38.5,38.0,30.08,NNE,16,0.0,0.0,96,0.00,,,0.00,weatherlink.com 1.10,2013-03-24 14:01:00,
2013-03-24 07:16:00,38.4,37.0,30.08,NNE,16,0.0,0.0,96,0.00,,,0.00,weatherlink.com 1.10,2013-03-24 14:16:00,
2013-03-24 07:31:00,38.3,37.0,30.09,NNE,16,0.0,0.0,96,0.00,,,0.00,weatherlink.com 1.10,2013-03-24 14:31:00,
2013-03-24 07:46:00,38.2,37.0,30.09,NNE,16,0.0,0.0,96,0.00,,,0.00,weatherlink.com 1.10,2013-03-24 14:46:00,
2013-03-24 08:01:00,38.2,37.0,30.09,NNE,16,0.0,0.0,96,0.00,,,0.00,weatherlink.com 1.10,2013-03-24 15:01:00,
2013-03-24 08:31:00,38.5,38.0,30.09,NNE,16,0.0,0.0,96,0.00,,,0.00,weatherlink.com 1.10,2013-03-24 15:31:00,
2013-03-24 08:46:00,38.8,38.0,30.09,NNE,16,0.0,0.0,97,0.00,,,0.00,weatherlink.com 1.10,2013-03-24 15:46:00,
2013-03-24 09:16:00,40.0,39.0,30.09,NNE,16,0.0,0.0,97,0.00,,,0.00,weatherlink.com 1.10,2013-03-24 16:16:00,
2013-03-24 09:31:00,40.9,40.0,30.08,NNE,16,0.0,0.0,97,0.00,,,0.00,weatherlink.com 1.10,2013-03-24 16:31:00,
2013-03-24 09:46:00,42.2,42.0,30.08,NNE,16,0.0,-999.0,98,-99.99,,,0.00,weatherlink.com 1.10,2013-03-24 16:46:00,
2013-03-24 10:01:00,44.1,44.0,30.08,NNE,15,0.0,0.0,98,0.00,,,0.00,weatherlink.com 1.10,2013-03-24 17:01:00,
2013-03-24 10:31:00,47.3,46.0,30.08,NNE,16,0.0,0.0,95,0.00,,,0.00,weatherlink.com 1.10,2013-03-24 17:31:00,
2013-03-24 10:46:00,49.1,46.0,30.07,NNE,16,0.0,0.0,90,0.00,,,0.00,weatherlink.com 1.10,2013-03-24 17:46:00,
2013-03-24 11:01:00,50.8,47.0,30.07,NNE,15,0.0,0.0,85,0.00,,,0.00,weatherlink.com 1.10,2013-03-24 18:01:00,
2013-03-24 11:17:00,52.4,46.0,30.07,NNE,30,0.0,0.0,78,0.00,,,0.00,weatherlink.com 1.10,2013-03-24 18:17:00,
2013-03-24 11:32:00,54.3,47.0,30.06,NNE,30,0.0,0.0,75,0.00,,,0.00,weatherlink.com 1.10,2013-03-24 18:32:00,
2013-03-24 11:47:00,56.1,47.0,30.06,East,97,0.0,0.0,72,0.00,,,0.00,weatherlink.com 1.10,2013-03-24 18:47:00,
2013-03-24 12:02:00,57.9,48.0,30.06,NW,313,0.0,0.0,69,0.00,,,0.00,weatherlink.com 1.10,2013-03-24 19:02:00,
2013-03-24 12:17:00,59.3,50.0,30.06,ESE,117,0.0,0.0,70,0.00,,,0.00,weatherlink.com 1.10,2013-03-24 19:17:00,
2013-03-24 12:32:00,60.6,49.0,30.05,ESE,105,0.0,0.0,66,0.00,,,0.00,weatherlink.com 1.10,2013-03-24 19:32:00,
2013-03-24 12:47:00,62.2,48.0,30.04,SE,130,0.0,1.0,60,0.00,,,0.00,weatherlink.com 1.10,2013-03-24 19:47:00,
2013-03-24 13:02:00,63.4,50.0,30.04,SSE,148,0.0,2.0,63,0.00,,,0.00,weatherlink.com 1.10,2013-03-24 20:02:00,
2013-03-24 13:17:00,65.7,48.0,30.03,SSW,207,1.0,3.0,53,0.00,,,0.00,weatherlink.com 1.10,2013-03-24 20:17:00,
2013-03-24 13:32:00,66.9,49.0,30.02,SSW,208,1.0,2.0,53,0.00,,,0.00,weatherlink.com 1.10,2013-03-24 20:32:00,
2013-03-24 13:47:00,67.7,51.0,30.02,SSW,207,2.0,2.0,55,0.00,,,0.00,weatherlink.com 1.10,2013-03-24 20:47:00,
2013-03-24 14:02:00,68.4,48.0,30.01,WSW,249,0.0,2.0,49,0.00,,,0.00,weatherlink.com 1.10,2013-03-24 21:02:00,
2013-03-24 14:17:00,68.4,48.0,30.00,SSW,207,0.0,2.0,49,0.00,,,0.00,weatherlink.com 1.10,2013-03-24 21:17:00,
2013-03-24 14:32:00,68.5,48.0,30.00,WSW,253,0.0,2.0,48,0.00,,,0.00,weatherlink.com 1.10,2013-03-24 21:32:00,
2013-03-24 14:47:00,68.6,51.0,29.99,West,270,0.0,2.0,54,0.00,,,0.00,weatherlink.com 1.10,2013-03-24 21:47:00,
2013-03-24 15:02:00,68.2,52.0,29.99,SSE,163,1.0,3.0,56,0.00,,,0.00,weatherlink.com 1.10,2013-03-24 22:02:00,
2013-03-24 15:17:00,68.1,51.0,29.99,NNW,334,3.0,3.0,55,0.00,,,0.00,weatherlink.com 1.10,2013-03-24 22:17:00,
2013-03-24 15:32:00,68.1,51.0,29.98,NNE,19,2.0,3.0,55,0.00,,,0.00,weatherlink.com 1.10,2013-03-24 22:32:00,
2013-03-24 15:47:00,67.2,52.0,29.98,South,188,1.0,3.0,58,0.00,,,0.00,weatherlink.com 1.10,2013-03-24 22:47:00,
2013-03-24 16:02:00,67.1,50.0,29.97,SW,218,1.0,2.0,54,0.00,,,0.00,weatherlink.com 1.10,2013-03-24 23:02:00,
2013-03-24 16:18:00,66.2,51.0,29.97,SSW,211,0.0,2.0,59,0.00,,,0.00,weatherlink.com 1.10,2013-03-24 23:18:00,
2013-03-24 16:33:00,65.4,50.0,29.96,South,172,0.0,2.0,58,0.00,,,0.00,weatherlink.com 1.10,2013-03-24 23:33:00,
2013-03-24 16:48:00,64.9,49.0,29.96,NW,314,0.0,2.0,57,0.00,,,0.00,weatherlink.com 1.10,2013-03-24 23:48:00,
2013-03-24 17:03:00,64.8,50.0,29.96,SSE,165,0.0,0.0,60,0.00,,,0.00,weatherlink.com 1.10,2013-03-25 00:03:00,
2013-03-24 17:18:00,63.6,51.0,29.96,SSE,163,0.0,0.0,63,0.00,,,0.00,weatherlink.com 1.10,2013-03-25 00:18:00,
2013-03-24 17:33:00,62.1,52.0,29.96,NNE,16,0.0,0.0,70,0.00,,,0.00,weatherlink.com 1.10,2013-03-25 00:33:00,
2013-03-24 17:48:00,60.3,52.0,29.96,NNE,15,0.0,0.0,74,0.00,,,0.00,weatherlink.com 1.10,2013-03-25 00:48:00,
2013-03-24 18:03:00,59.4,52.0,29.96,NNE,15,0.0,0.0,76,0.00,,,0.00,weatherlink.com 1.10,2013-03-25 01:03:00,
2013-03-24 18:18:00,58.5,52.0,29.95,NNE,16,0.0,0.0,78,0.00,,,0.00,weatherlink.com 1.10,2013-03-25 01:18:00,
2013-03-24 18:33:00,57.8,52.0,29.96,NNE,16,0.0,0.0,80,0.00,,,0.00,weatherlink.com 1.10,2013-03-25 01:33:00,
2013-03-24 18:48:00,57.2,52.0,29.96,NNE,16,0.0,0.0,82,0.00,,,0.00,weatherlink.com 1.10,2013-03-25 01:48:00,
2013-03-24 19:03:00,56.8,51.0,29.96,NNE,15,0.0,0.0,82,0.00,,,0.00,weatherlink.com 1.10,2013-03-25 02:03:00,
2013-03-24 19:18:00,56.2,51.0,29.96,NNE,15,0.0,0.0,82,0.00,,,0.00,weatherlink.com 1.10,2013-03-25 02:18:00,
2013-03-24 19:33:00,55.5,50.0,29.96,NNE,15,0.0,0.0,83,0.00,,,0.00,weatherlink.com 1.10,2013-03-25 02:33:00,
2013-03-24 19:48:00,54.8,50.0,29.96,NNE,15,0.0,0.0,84,0.00,,,0.00,weatherlink.com 1.10,2013-03-25 02:48:00,
2013-03-24 20:03:00,54.0,50.0,29.96,NNE,16,0.0,0.0,85,0.00,,,0.00,weatherlink.com 1.10,2013-03-25 03:03:00,
2013-03-24 20:18:00,53.2,49.0,29.96,NNE,15,0.0,0.0,86,0.00,,,0.00,weatherlink.com 1.10,2013-03-25 03:18:00,
2013-03-24 20:33:00,52.5,49.0,29.97,NNE,16,0.0,0.0,87,0.00,,,0.00,weatherlink.com 1.10,2013-03-25 03:33:00,
2013-03-24 20:50:00,52.0,48.0,29.97,NNE,16,0.0,0.0,87,0.00,,,0.00,weatherlink.com 1.10,2013-03-25 03:50:00,
2013-03-24 21:03:00,51.5,48.0,29.97,NNE,16,0.0,0.0,88,0.00,,,0.00,weatherlink.com 1.10,2013-03-25 04:03:00,
2013-03-24 21:18:00,51.0,48.0,29.98,NNE,16,0.0,0.0,88,0.00,,,0.00,weatherlink.com 1.10,2013-03-25 04:18:00,
2013-03-24 21:33:00,50.4,47.0,29.98,NNE,16,0.0,0.0,89,0.00,,,0.00,weatherlink.com 1.10,2013-03-25 04:33:00,
2013-03-24 21:48:00,49.9,47.0,29.99,NNE,16,0.0,0.0,90,0.00,,,0.00,weatherlink.com 1.10,2013-03-25 04:48:00,
2013-03-24 22:03:00,49.4,47.0,29.98,NNE,16,0.0,0.0,90,0.00,,,0.00,weatherlink.com 1.10,2013-03-25 05:03:00,
2013-03-24 22:18:00,49.1,47.0,29.98,NNE,15,0.0,0.0,91,0.00,,,0.00,weatherlink.com 1.10,2013-03-25 05:18:00,
2013-03-24 22:33:00,48.7,46.0,29.99,NNE,15,0.0,0.0,91,0.00,,,0.00,weatherlink.com 1.10,2013-03-25 05:33:00,
2013-03-24 22:48:00,48.4,46.0,29.99,NNE,15,0.0,0.0,91,0.00,,,0.00,weatherlink.com 1.10,2013-03-25 05:48:00,
2013-03-24 23:03:00,48.1,46.0,29.99,NNE,15,0.0,0.0,92,0.00,,,0.00,weatherlink.com 1.10,2013-03-25 06:03:00,
2013-03-24 23:18:00,47.9,46.0,29.99,NNE,16,0.0,0.0,92,0.00,,,0.00,weatherlink.com 1.10,2013-03-25 06:18:00,
2013-03-24 23:33:00,47.5,45.0,29.99,NNE,16,0.0,0.0,92,0.00,,,0.00,weatherlink.com 1.10,2013-03-25 06:33:00,
2013-03-24 23:48:00,47.1,45.0,29.99,NNE,15,0.0,0.0,93,0.00,,,0.00,weatherlink.com 1.10,2013-03-25 06:48:00,